Swanburg, Minnesota
Current Conditions -  °F | °C
As of 9:14 PM on Friday 21 Nov 2014 (Local Time) from KPWC Reporting Station
Clear Clear  
Wind Chill: 20°   Ceiling: Unl
Heat Index: 28°   Visibility: 10mi
Dew Point: 25°   Wind: 9mph
Humidity: 86%   Direction: 180°S
Pressure: 29.77"   Gusts: NA
Location:  46.6535°N, 94.5389°W
Report Text: KPWC 220314Z AUTO 18008KT 10SM CLR M02/M04 A2977 RMK AO2
Loading
Personal Weather Stations






























Interactive Weather Map New forecast layout! Learn more

10-Day Weather Forecast

Advertisements
Track Severe Weather on mobile